createdAt,value
2019-02-04T00:01:43.998Z,30.12
2019-02-04T00:04:12.702Z,30.20
2019-02-04T00:06:41.377Z,30.25
2019-02-04T00:09:49.926Z,29.60
2019-02-04T00:12:18.581Z,27.45
2019-02-04T00:14:46.972Z,31.12
2019-02-04T00:17:15.366Z,29.10
2019-02-04T00:19:43.771Z,36.28
2019-02-04T00:22:13.882Z,26.65
2019-02-04T00:24:42.292Z,25.95
2019-02-04T00:27:11.008Z,33.88
2019-02-04T00:29:39.413Z,30.10
2019-02-04T00:32:07.800Z,30.70
2019-02-04T00:34:36.550Z,29.65
2019-02-04T00:37:06.981Z,30.10
2019-02-04T00:39:35.374Z,24.63
2019-02-04T00:42:03.849Z,25.95
2019-02-04T00:44:32.237Z,28.45
2019-02-04T00:47:00.646Z,29.90
2019-02-04T00:49:29.038Z,31.50
2019-02-04T00:51:59.191Z,26.65
2019-02-04T00:54:27.599Z,26.87
2019-02-04T00:56:55.993Z,33.00
2019-02-04T00:59:24.636Z,24.00
2019-02-04T01:01:53.029Z,28.07
2019-02-04T01:04:21.503Z,25.48
2019-02-04T01:06:51.619Z,26.52
2019-02-04T01:09:20.408Z,28.77
2019-02-04T01:11:48.804Z,22.22
2019-02-04T01:14:17.815Z,28.60
2019-02-04T01:16:46.222Z,27.07
2019-02-04T01:19:14.611Z,25.82
2019-02-04T01:21:45.114Z,32.45
2019-02-04T01:24:13.513Z,22.58
2019-02-04T01:26:42.169Z,32.90
2019-02-04T01:29:10.790Z,27.65
2019-02-04T01:31:39.499Z,34.58
2019-02-04T01:34:27.647Z,33.67
2019-02-04T01:36:56.046Z,35.73
2019-02-04T01:39:24.688Z,29.45
2019-02-04T01:41:53.076Z,27.65
2019-02-04T01:44:21.469Z,31.17
2019-02-04T01:46:51.648Z,34.35
2019-02-04T01:49:20.045Z,33.25
2019-02-04T01:51:48.450Z,32.03
2019-02-04T01:54:16.836Z,31.93
2019-02-04T01:56:45.248Z,36.50
2019-02-04T01:59:13.642Z,42.75
2019-02-04T02:02:01.388Z,29.77
2019-02-04T02:04:29.776Z,29.90
2019-02-04T02:06:58.480Z,32.65
2019-02-04T02:09:27.120Z,30.92
2019-02-04T02:11:55.582Z,27.82
2019-02-04T02:14:25.710Z,31.95
2019-02-04T02:16:54.104Z,28.05
2019-02-04T02:19:22.493Z,31.00
2019-02-04T02:21:50.893Z,32.17
2019-02-04T02:24:19.284Z,29.05
2019-02-04T02:26:47.969Z,31.82
2019-02-04T02:29:18.082Z,28.95
2019-02-04T02:31:46.491Z,32.73
2019-02-04T02:34:34.216Z,30.90
2019-02-04T02:37:02.616Z,30.27
2019-02-04T02:39:32.725Z,37.53
2019-02-04T02:42:01.374Z,35.38
2019-02-04T02:44:29.772Z,35.40
2019-02-04T02:46:58.396Z,39.95
2019-02-04T02:49:27.046Z,37.17
2019-02-04T02:51:55.435Z,35.20
2019-02-04T02:54:23.836Z,35.25
2019-02-04T02:56:52.234Z,26.82
2019-02-04T02:59:20.958Z,40.83
2019-02-04T03:01:49.604Z,35.75
2019-02-04T03:04:17.996Z,45.48
2019-02-04T03:06:46.408Z,32.40
2019-02-04T03:09:14.799Z,33.98
2019-02-04T03:11:43.185Z,37.88
2019-02-04T03:14:11.591Z,32.90
2019-02-04T03:16:40.329Z,40.45
2019-02-04T03:19:09.014Z,49.45
2019-02-04T03:21:37.404Z,37.60
2019-02-04T03:24:25.149Z,33.83
2019-02-04T03:26:53.804Z,38.45
2019-02-04T03:29:22.205Z,45.28
2019-02-04T03:31:50.880Z,43.75
2019-02-04T03:34:19.569Z,34.95
2019-02-04T03:37:09.026Z,40.73
2019-02-04T03:39:37.719Z,40.00
2019-02-04T03:42:06.504Z,38.25
2019-02-04T03:44:34.928Z,41.68
2019-02-04T03:47:03.303Z,35.55
2019-02-04T03:49:31.712Z,52.73
2019-02-04T03:52:00.114Z,60.73
2019-02-04T03:54:28.743Z,44.95
2019-02-04T03:56:57.150Z,52.35
2019-02-04T03:59:25.546Z,39.90
2019-02-04T04:01:53.953Z,44.33
2019-02-04T04:04:22.633Z,38.35
2019-02-04T04:06:51.042Z,56.28
2019-02-04T04:09:19.438Z,43.02
2019-02-04T04:11:48.177Z,36.53
2019-02-04T04:14:16.879Z,42.67
2019-02-04T04:16:45.276Z,47.53
2019-02-04T04:19:13.666Z,40.03
2019-02-04T04:21:42.409Z,45.30
2019-02-04T04:24:10.805Z,42.03
2019-02-04T04:26:39.286Z,39.40
2019-02-04T04:29:07.678Z,45.88
2019-02-04T04:31:36.074Z,43.65
2019-02-04T04:34:06.439Z,55.70
2019-02-04T04:36:34.837Z,41.00
2019-02-04T04:41:58.192Z,41.90
2019-02-04T04:44:26.683Z,44.80
2019-02-04T04:46:55.382Z,45.38
2019-02-04T04:49:23.780Z,48.08
2019-02-04T04:51:52.188Z,46.95
2019-02-04T04:54:20.582Z,47.90
2019-02-04T04:56:49.306Z,56.42
2019-02-04T04:59:19.420Z,49.90
2019-02-04T05:01:47.887Z,48.58
2019-02-04T05:04:16.591Z,43.05
2019-02-04T05:07:04.356Z,50.95
2019-02-04T05:09:34.458Z,50.50
2019-02-04T05:12:03.131Z,58.02
2019-02-04T05:14:31.533Z,45.40
2019-02-04T05:16:59.943Z,57.60
2019-02-04T05:19:28.338Z,44.27
2019-02-04T05:21:56.753Z,55.83
2019-02-04T05:24:26.866Z,52.25
2019-02-04T05:26:55.260Z,52.05
2019-02-04T05:29:23.666Z,43.98
2019-02-04T05:31:52.060Z,40.05
2019-02-04T05:34:20.793Z,59.58
2019-02-04T05:36:49.185Z,41.08
2019-02-04T05:39:19.302Z,56.13
2019-02-04T05:41:47.978Z,49.90
2019-02-04T05:44:16.664Z,60.43
2019-02-04T05:46:45.366Z,49.42
2019-02-04T05:49:14.138Z,40.63
2019-02-04T05:51:42.533Z,46.35
2019-02-04T05:54:12.941Z,57.23
2019-02-04T05:56:41.337Z,54.67
2019-02-04T05:59:29.081Z,48.40
2019-02-04T06:01:57.479Z,51.25
2019-02-04T06:04:25.875Z,57.75
2019-02-04T06:06:56.003Z,57.00
2019-02-04T06:09:24.717Z,60.15
2019-02-04T06:11:53.417Z,59.00
2019-02-04T06:14:21.819Z,39.98
2019-02-04T06:16:50.205Z,48.52
2019-02-04T06:19:25.891Z,50.95
2019-02-04T06:21:54.282Z,57.10
2019-02-04T06:24:22.689Z,47.48
2019-02-04T06:26:51.138Z,49.77
2019-02-04T06:29:19.775Z,57.95
2019-02-04T06:31:48.182Z,57.27
2019-02-04T06:34:18.298Z,59.33
2019-02-04T06:36:46.702Z,66.05
2019-02-04T06:39:15.131Z,61.33
2019-02-04T06:41:43.543Z,53.30
2019-02-04T06:44:11.926Z,58.48
2019-02-04T06:46:40.339Z,57.00
2019-02-04T06:49:12.345Z,66.70
2019-02-04T06:51:38.849Z,64.87
2019-02-04T06:54:07.253Z,50.30
2019-02-04T06:56:36.166Z,57.20
2019-02-04T06:59:05.777Z,69.35
2019-02-04T07:01:34.176Z,57.33
2019-02-04T07:04:02.575Z,57.90
2019-02-04T07:06:30.972Z,56.05
2019-02-04T07:08:59.367Z,56.55
2019-02-04T07:11:27.794Z,65.22
2019-02-04T07:13:56.193Z,80.53
2019-02-04T07:16:24.590Z,75.95
2019-02-04T07:18:52.994Z,78.78
2019-02-04T07:21:23.170Z,79.12
2019-02-04T07:23:51.850Z,76.85
2019-02-04T07:26:20.550Z,78.42
2019-02-04T07:28:48.947Z,79.12
2019-02-04T07:31:17.350Z,61.13
2019-02-04T07:33:45.754Z,74.72
2019-02-04T07:36:14.465Z,66.17
2019-02-04T07:38:42.857Z,63.08
2019-02-04T07:41:14.434Z,68.12
2019-02-04T07:43:41.966Z,58.30
2019-02-04T07:46:10.363Z,64.75
2019-02-04T07:48:38.801Z,64.67
2019-02-04T07:51:07.507Z,83.62
2019-02-04T07:53:36.050Z,73.97
2019-02-04T07:56:04.538Z,60.48
2019-02-04T07:58:32.906Z,66.80
2019-02-04T08:01:01.308Z,69.77
2019-02-04T08:03:30.005Z,66.75
2019-02-04T08:05:58.411Z,68.87
2019-02-04T08:08:26.884Z,73.30
2019-02-04T08:10:55.268Z,82.42
2019-02-04T08:13:23.931Z,77.72
2019-02-04T08:15:52.322Z,64.30
2019-02-04T08:18:20.726Z,81.25
2019-02-04T08:20:49.122Z,85.97
2019-02-04T08:23:17.541Z,67.03
2019-02-04T08:25:45.924Z,88.80
2019-02-04T08:28:14.311Z,80.55
2019-02-04T08:30:42.781Z,79.17
2019-02-04T08:33:11.170Z,91.50
2019-02-04T08:35:39.650Z,78.75
2019-02-04T08:38:08.438Z,71.77
2019-02-04T08:40:38.548Z,89.67
2019-02-04T08:43:07.256Z,86.12
2019-02-04T08:45:35.808Z,81.72
2019-02-04T08:50:59.211Z,78.05
2019-02-04T08:53:27.602Z,86.78
2019-02-04T08:55:56.009Z,73.05
2019-02-04T08:58:24.396Z,81.82
2019-02-04T09:00:52.813Z,77.62
2019-02-04T09:03:21.510Z,63.42
2019-02-04T09:05:50.196Z,70.57
2019-02-04T09:08:18.603Z,71.55
2019-02-04T09:10:47.060Z,64.42
2019-02-04T09:13:15.449Z,59.00
2019-02-04T09:15:44.121Z,62.50
2019-02-04T09:18:12.514Z,61.45
2019-02-04T09:20:41.185Z,59.65
2019-02-04T09:23:09.578Z,62.93
2019-02-04T09:25:38.431Z,67.92
2019-02-04T09:28:07.076Z,56.85
2019-02-04T09:30:35.737Z,55.95
2019-02-04T09:35:58.768Z,61.77
2019-02-04T09:38:27.121Z,55.45
2019-02-04T09:40:55.600Z,73.52
2019-02-04T09:43:24.348Z,48.92
2019-02-04T09:45:53.046Z,58.30
2019-02-04T09:48:41.075Z,61.85
2019-02-04T09:51:09.472Z,75.67
2019-02-04T09:53:37.949Z,55.23
2019-02-04T09:56:06.483Z,58.02
2019-02-04T09:58:34.874Z,79.40
2019-02-04T10:01:04.369Z,57.50
2019-02-04T10:03:33.898Z,60.83
2019-02-04T10:06:02.305Z,52.17
2019-02-04T10:08:30.695Z,82.75
2019-02-04T10:10:59.089Z,45.33
2019-02-04T10:13:27.718Z,47.50
2019-02-04T10:15:56.113Z,50.95
2019-02-04T10:18:24.792Z,47.25
2019-02-04T10:20:53.497Z,50.23
2019-02-04T10:23:22.212Z,54.67
2019-02-04T10:25:50.602Z,43.17
2019-02-04T10:28:19.239Z,43.48
2019-02-04T10:30:48.010Z,38.83
2019-02-04T10:33:16.662Z,41.68
2019-02-04T10:35:45.211Z,46.95
2019-02-04T10:38:16.387Z,41.08
2019-02-04T10:40:44.096Z,46.08
2019-02-04T10:43:31.831Z,32.88
2019-02-04T10:46:00.547Z,38.02
2019-02-04T10:48:28.969Z,33.10
2019-02-04T10:50:57.720Z,34.10
2019-02-04T10:53:26.370Z,35.50
2019-02-04T10:55:54.816Z,37.60
2019-02-04T10:58:23.527Z,30.50
2019-02-04T11:00:52.237Z,36.75
2019-02-04T11:03:20.951Z,24.25
2019-02-04T11:05:49.634Z,28.85
2019-02-04T11:08:18.155Z,26.68
2019-02-04T11:10:46.531Z,28.75
2019-02-04T11:13:54.874Z,22.60
2019-02-04T11:16:23.237Z,21.75
2019-02-04T11:18:51.947Z,21.68
2019-02-04T11:21:20.407Z,29.18
2019-02-04T11:23:49.102Z,23.35
2019-02-04T11:26:17.513Z,21.50
2019-02-04T11:28:45.894Z,17.10
2019-02-04T11:31:14.555Z,30.17
2019-02-04T11:33:43.224Z,20.35
2019-02-04T11:36:11.677Z,28.10
2019-02-04T11:38:40.093Z,23.42
2019-02-04T11:41:48.418Z,20.30
2019-02-04T11:44:17.174Z,37.10
2019-02-04T11:46:45.893Z,25.32
2019-02-04T11:49:14.264Z,26.82
2019-02-04T11:51:42.678Z,29.72
2019-02-04T11:54:11.081Z,22.00
2019-02-04T11:56:39.796Z,24.27
2019-02-04T11:59:08.189Z,27.75
2019-02-04T12:01:36.592Z,25.62
2019-02-04T12:04:44.896Z,29.20
2019-02-04T12:07:13.815Z,32.10
2019-02-04T12:09:42.208Z,26.90
2019-02-04T12:12:10.929Z,26.07
2019-02-04T12:14:39.335Z,24.02
2019-02-04T12:17:07.729Z,25.23
2019-02-04T12:19:36.470Z,24.87
2019-02-04T12:22:04.935Z,23.67
2019-02-04T12:24:33.641Z,21.42
2019-02-04T12:27:02.033Z,12.35
2019-02-04T12:29:30.703Z,11.03
2019-02-04T12:31:59.391Z,17.60
2019-02-04T12:34:27.783Z,18.32
2019-02-04T12:36:56.458Z,25.43
2019-02-04T12:39:26.583Z,28.87
2019-02-04T12:41:55.035Z,21.48
2019-02-04T12:44:23.451Z,26.52
2019-02-04T12:46:52.228Z,22.73
2019-02-04T12:49:20.698Z,23.73
2019-02-04T12:51:49.088Z,19.20
2019-02-04T12:54:17.993Z,21.27
2019-02-04T12:56:46.407Z,20.45
2019-02-04T12:59:14.795Z,13.78
2019-02-04T13:01:43.518Z,22.85
2019-02-04T13:04:11.909Z,16.37
2019-02-04T13:06:40.316Z,12.82
2019-02-04T13:12:17.072Z,31.10
2019-02-04T13:14:45.464Z,16.93
2019-02-04T13:17:15.590Z,21.40
2019-02-04T13:19:43.989Z,20.30
2019-02-04T13:22:12.453Z,24.43
2019-02-04T13:24:40.865Z,26.80
2019-02-04T13:27:09.255Z,34.25
2019-02-04T13:29:37.649Z,32.13
2019-02-04T13:32:06.123Z,24.37
2019-02-04T13:34:34.517Z,31.30
2019-02-04T13:37:02.924Z,27.30
2019-02-04T13:39:31.316Z,38.90
2019-02-04T13:41:59.719Z,34.20
2019-02-04T13:44:28.114Z,33.50
2019-02-04T13:47:16.189Z,32.60
2019-02-04T13:49:44.579Z,31.87
2019-02-04T13:52:15.268Z,32.70
2019-02-04T13:54:43.377Z,30.55
2019-02-04T13:57:11.838Z,37.00
2019-02-04T13:59:41.963Z,38.70
2019-02-04T14:02:13.343Z,35.20
2019-02-04T14:04:40.881Z,35.68
2019-02-04T14:07:28.627Z,30.15
2019-02-04T14:09:59.271Z,33.67
2019-02-04T14:12:29.259Z,36.77
2019-02-04T14:14:57.654Z,34.98
2019-02-04T14:17:26.056Z,41.58
2019-02-04T14:19:54.448Z,30.85
2019-02-04T14:22:22.866Z,33.70
2019-02-04T14:24:53.322Z,26.93
2019-02-04T14:27:21.713Z,37.80
2019-02-04T14:29:50.374Z,33.63
2019-02-04T14:32:18.791Z,27.42
2019-02-04T14:34:47.188Z,31.10
2019-02-04T14:37:15.915Z,30.40
2019-02-04T14:40:26.001Z,27.45
2019-02-04T14:43:34.553Z,28.70
2019-02-04T14:46:41.551Z,25.68
2019-02-04T14:49:48.543Z,26.20
2019-02-04T14:52:56.042Z,30.60
2019-02-04T14:56:03.048Z,54.08
2019-02-04T14:59:10.273Z,28.55
2019-02-04T15:02:17.284Z,31.35
2019-02-04T15:05:25.950Z,28.73
2019-02-04T15:08:33.654Z,30.12
2019-02-04T15:11:42.209Z,32.60
2019-02-04T15:14:50.524Z,34.88
2019-02-04T15:17:59.238Z,29.42
2019-02-04T15:21:06.236Z,32.35
2019-02-04T15:24:14.779Z,29.40
2019-02-04T15:27:23.094Z,26.30
2019-02-04T15:30:32.010Z,30.35
2019-02-04T15:33:39.248Z,34.95
2019-02-04T15:36:46.467Z,35.52
2019-02-04T15:39:54.778Z,25.05
2019-02-04T15:43:02.012Z,37.28
2019-02-04T15:46:08.988Z,38.50
2019-02-04T15:49:17.356Z,33.55
2019-02-04T15:52:05.090Z,29.25
2019-02-04T15:54:33.497Z,41.83
2019-02-04T15:57:02.198Z,36.28
2019-02-04T15:59:31.019Z,34.50
2019-02-04T16:01:59.809Z,33.33
2019-02-04T16:05:08.370Z,35.48
2019-02-04T16:07:38.494Z,39.27
2019-02-04T16:10:46.804Z,28.62
2019-02-04T16:13:15.191Z,34.00
2019-02-04T16:15:45.300Z,34.83
2019-02-04T16:18:14.047Z,28.87
2019-02-04T16:20:42.504Z,41.23
2019-02-04T16:23:10.927Z,35.92
2019-02-04T16:25:39.305Z,37.80
2019-02-04T16:28:07.768Z,40.15
2019-02-04T16:30:38.198Z,37.03
2019-02-04T16:33:06.650Z,38.15
2019-02-04T16:35:35.064Z,36.08
2019-02-04T16:38:43.374Z,33.50
2019-02-04T16:41:11.780Z,44.67
2019-02-04T16:43:40.169Z,36.08
2019-02-04T16:46:08.925Z,34.53
2019-02-04T16:48:37.316Z,36.95
2019-02-04T16:51:11.666Z,42.43
2019-02-04T16:53:36.111Z,38.30
2019-02-04T16:56:04.569Z,55.30
2019-02-04T16:58:32.952Z,49.38
2019-02-04T17:01:01.356Z,46.75
2019-02-04T17:03:29.743Z,39.45
2019-02-04T17:05:58.139Z,48.55
2019-02-04T17:08:26.531Z,40.65
2019-02-04T17:10:55.172Z,43.65
2019-02-04T17:16:11.982Z,47.60
2019-02-04T17:18:40.374Z,66.25
2019-02-04T17:21:10.617Z,53.55
2019-02-04T17:23:39.015Z,40.65
2019-02-04T17:26:07.409Z,37.45
2019-02-04T17:28:35.817Z,42.62
2019-02-04T17:31:04.620Z,44.38
2019-02-04T17:33:33.009Z,47.00
2019-02-04T17:36:01.928Z,36.33
2019-02-04T17:38:30.309Z,45.43
2019-02-04T17:40:58.709Z,45.55
2019-02-04T17:43:27.099Z,50.00
2019-02-04T17:45:55.565Z,44.70
2019-02-04T17:48:24.020Z,55.40
2019-02-04T17:50:52.407Z,45.45
2019-02-04T17:53:21.063Z,51.28
2019-02-04T17:55:49.449Z,60.48
2019-02-04T17:58:17.853Z,55.28
2019-02-04T18:03:35.485Z,48.05
2019-02-04T18:09:11.943Z,61.73
2019-02-04T18:11:42.376Z,54.67
2019-02-04T18:14:11.057Z,45.73
2019-02-04T18:16:39.458Z,53.45
2019-02-04T18:19:08.120Z,47.55
2019-02-04T18:21:36.525Z,55.67
2019-02-04T18:24:44.815Z,54.98
2019-02-04T18:27:13.607Z,52.95
2019-02-04T18:29:41.999Z,46.90
2019-02-04T18:32:12.355Z,54.80
2019-02-04T18:34:40.758Z,53.42
2019-02-04T18:37:10.869Z,50.15
2019-02-04T18:39:39.274Z,52.78
2019-02-04T18:42:07.970Z,56.73
2019-02-04T18:44:57.760Z,60.55
2019-02-04T18:47:26.446Z,57.80
2019-02-04T18:49:54.835Z,59.10
2019-02-04T18:52:25.201Z,47.38
2019-02-04T18:54:53.597Z,54.93
2019-02-04T18:57:22.005Z,50.28
2019-02-04T18:59:50.393Z,58.70
2019-02-04T19:02:19.016Z,55.30
2019-02-04T19:05:27.382Z,54.50
2019-02-04T19:07:56.064Z,50.55
2019-02-04T19:11:04.369Z,50.85
2019-02-04T19:13:36.116Z,50.52
2019-02-04T19:16:22.224Z,55.95
2019-02-04T19:18:50.937Z,51.50
2019-02-04T19:21:19.392Z,50.70
2019-02-04T19:23:47.870Z,66.02
2019-02-04T19:26:16.568Z,57.98
2019-02-04T19:28:45.193Z,50.78
2019-02-04T19:31:13.602Z,52.83
2019-02-04T19:33:42.325Z,53.28
2019-02-04T19:39:45.138Z,51.80
2019-02-04T19:42:13.811Z,53.25
2019-02-04T19:44:42.210Z,51.98
2019-02-04T19:47:10.602Z,45.48
2019-02-04T19:49:39.254Z,44.60
2019-02-04T19:52:07.844Z,50.05
2019-02-04T19:54:36.695Z,50.55
2019-02-04T19:57:07.466Z,53.20
2019-02-04T19:59:36.392Z,50.45
2019-02-04T20:02:44.791Z,48.00
2019-02-04T20:05:53.296Z,50.45
2019-02-04T20:08:22.501Z,49.23
2019-02-04T20:10:53.630Z,53.50
2019-02-04T20:13:22.286Z,47.40
2019-02-04T20:15:51.169Z,50.35
2019-02-04T20:18:19.942Z,54.45
2019-02-04T20:20:49.110Z,50.50
2019-02-04T20:23:17.929Z,54.80
2019-02-04T20:25:48.256Z,53.08
2019-02-04T20:28:16.895Z,53.35
2019-02-04T20:31:25.323Z,56.15
2019-02-04T20:33:53.742Z,52.60
2019-02-04T20:36:22.325Z,61.10
2019-02-04T20:38:51.324Z,55.67
2019-02-04T20:41:19.735Z,67.95
2019-02-04T20:43:48.323Z,64.42
2019-02-04T20:46:16.736Z,59.38
2019-02-04T20:48:45.391Z,59.98
2019-02-04T20:51:13.798Z,62.10
2019-02-04T20:53:42.197Z,58.65
2019-02-04T20:56:10.675Z,58.60
2019-02-04T20:58:39.085Z,56.90
2019-02-04T21:01:07.801Z,57.40
2019-02-04T21:03:36.277Z,58.75
2019-02-04T21:06:06.393Z,59.73
2019-02-04T21:08:34.817Z,59.53
2019-02-04T21:11:03.463Z,59.60
2019-02-04T21:13:32.163Z,54.93
2019-02-04T21:16:00.840Z,67.58
2019-02-04T21:18:29.226Z,57.75
2019-02-04T21:20:59.345Z,63.08
2019-02-04T21:23:27.739Z,65.45
2019-02-04T21:25:56.183Z,66.20
2019-02-04T21:28:24.884Z,51.75
2019-02-04T21:30:53.271Z,66.10
2019-02-04T21:33:21.671Z,67.53
2019-02-04T21:35:52.067Z,74.10
2019-02-04T21:38:20.474Z,65.35
2019-02-04T21:40:48.865Z,65.03
2019-02-04T21:43:17.485Z,68.22
2019-02-04T21:45:45.885Z,67.47
2019-02-04T21:48:14.281Z,65.80
2019-02-04T21:50:42.689Z,72.22
2019-02-04T21:53:11.155Z,69.35
2019-02-04T21:55:39.546Z,65.35
2019-02-04T21:58:08.401Z,70.32
2019-02-04T22:01:16.937Z,70.35
2019-02-04T22:03:45.603Z,80.70
2019-02-04T22:06:13.992Z,61.30
2019-02-04T22:08:42.388Z,61.92
2019-02-04T22:11:10.789Z,66.92
2019-02-04T22:13:39.183Z,69.67
2019-02-04T22:16:07.910Z,69.32
2019-02-04T22:18:36.298Z,67.78
2019-02-04T22:21:44.867Z,67.72
2019-02-04T22:24:14.979Z,59.45
2019-02-04T22:26:43.365Z,70.20
2019-02-04T22:29:13.490Z,54.13
2019-02-04T22:31:41.879Z,59.77
2019-02-04T22:34:12.329Z,61.28
2019-02-04T22:36:40.721Z,61.40
2019-02-04T22:39:10.897Z,64.25
2019-02-04T22:41:39.302Z,77.58
2019-02-04T22:44:07.768Z,72.80
2019-02-04T22:46:36.174Z,62.00
2019-02-04T22:52:12.966Z,72.22
2019-02-04T22:54:41.354Z,62.50
2019-02-04T22:57:09.753Z,67.25
2019-02-04T22:59:38.151Z,65.22
2019-02-04T23:02:48.401Z,73.10
2019-02-04T23:05:16.810Z,75.67
2019-02-04T23:07:45.252Z,70.72
2019-02-04T23:10:14.239Z,63.25
2019-02-04T23:12:42.622Z,65.15
2019-02-04T23:15:11.133Z,58.87
2019-02-04T23:17:39.529Z,66.65
2019-02-04T23:20:48.082Z,57.17
2019-02-04T23:23:16.473Z,62.27
2019-02-04T23:25:44.876Z,61.23
2019-02-04T23:28:13.543Z,60.30
2019-02-04T23:30:41.911Z,74.50
2019-02-04T23:33:10.299Z,63.23
2019-02-04T23:35:38.700Z,71.47
2019-02-04T23:38:07.160Z,69.17
2019-02-04T23:40:35.550Z,71.55
2019-02-04T23:45:59.206Z,59.15
2019-02-04T23:48:47.245Z,62.90
2019-02-04T23:51:15.634Z,59.25
2019-02-04T23:53:45.873Z,53.42
2019-02-04T23:56:14.281Z,64.85
2019-02-04T23:58:42.680Z,59.55
